createdAt,value
2023-02-24T00:00:38.368Z,92.56
2023-02-24T00:03:11.388Z,92.52
2023-02-24T00:05:44.462Z,92.40
2023-02-24T00:08:16.863Z,92.46
2023-02-24T00:10:47.862Z,92.53
2023-02-24T00:13:22.376Z,92.29
2023-02-24T00:16:02.554Z,92.46
2023-02-24T00:18:32.272Z,92.16
2023-02-24T00:21:08.223Z,92.38
2023-02-24T00:23:41.041Z,92.32
2023-02-24T00:26:12.769Z,92.17
2023-02-24T00:28:44.402Z,92.24
2023-02-24T00:31:16.296Z,92.15
2023-02-24T00:33:47.366Z,92.34
2023-02-24T00:36:23.791Z,92.21
2023-02-24T00:38:58.334Z,91.91
2023-02-24T00:41:30.557Z,92.05
2023-02-24T00:44:06.146Z,92.02
2023-02-24T00:46:38.039Z,92.07
2023-02-24T00:49:11.125Z,91.93
2023-02-24T00:51:43.048Z,92.07
2023-02-24T00:54:16.216Z,92.01
2023-02-24T00:56:46.875Z,91.99
2023-02-24T00:59:20.372Z,91.81
2023-02-24T01:01:50.780Z,91.81
2023-02-24T01:04:21.409Z,91.84
2023-02-24T01:07:00.396Z,91.74
2023-02-24T01:09:35.074Z,91.50
2023-02-24T01:12:22.329Z,91.53
2023-02-24T01:14:53.502Z,91.45
2023-02-24T01:17:25.491Z,91.56
2023-02-24T01:20:00.381Z,91.34
2023-02-24T01:22:30.386Z,91.49
2023-02-24T01:25:03.806Z,91.66
2023-02-24T01:27:37.066Z,91.64
2023-02-24T01:30:09.156Z,91.33
2023-02-24T01:32:38.951Z,91.45
2023-02-24T01:35:09.304Z,91.50
2023-02-24T01:37:39.021Z,91.20
2023-02-24T01:40:18.795Z,91.33
2023-02-24T01:42:50.280Z,91.52
2023-02-24T01:45:26.108Z,91.54
2023-02-24T01:47:56.234Z,91.21
2023-02-24T01:50:26.422Z,91.38
2023-02-24T01:52:58.922Z,91.52
2023-02-24T01:55:34.370Z,91.27
2023-02-24T01:58:08.763Z,91.40
2023-02-24T02:00:45.390Z,91.35
2023-02-24T02:03:26.979Z,91.27
2023-02-24T02:06:02.115Z,91.44
2023-02-24T02:08:32.282Z,91.44
2023-02-24T02:11:07.823Z,91.30
2023-02-24T02:13:38.648Z,91.24
2023-02-24T02:16:28.113Z,91.13
2023-02-24T02:19:03.620Z,91.18
2023-02-24T02:21:55.213Z,91.07
2023-02-24T02:24:30.413Z,91.07
2023-02-24T02:27:34.041Z,90.59
2023-02-24T02:30:36.516Z,90.68
2023-02-24T02:33:27.457Z,90.61
2023-02-24T02:36:07.075Z,90.37
2023-02-24T02:38:43.087Z,90.22
2023-02-24T02:41:21.123Z,90.39
2023-02-24T02:43:54.250Z,90.25
2023-02-24T02:46:34.877Z,90.10
2023-02-24T02:49:16.945Z,90.15
2023-02-24T02:51:55.052Z,90.22
2023-02-24T02:54:29.865Z,90.39
2023-02-24T02:57:02.809Z,90.35
2023-02-24T02:59:35.086Z,90.39
2023-02-24T03:02:13.129Z,90.11
2023-02-24T03:04:47.169Z,90.37
2023-02-24T03:07:21.075Z,90.15
2023-02-24T03:09:56.022Z,90.27
2023-02-24T03:12:27.861Z,90.35
2023-02-24T03:15:02.075Z,90.36
2023-02-24T03:17:36.012Z,90.23
2023-02-24T03:20:16.278Z,90.05
2023-02-24T03:22:52.536Z,90.12
2023-02-24T03:25:25.190Z,90.30
2023-02-24T03:27:58.358Z,90.23
2023-02-24T03:30:30.004Z,90.30
2023-02-24T03:33:03.474Z,90.10
2023-02-24T03:35:36.874Z,90.21
2023-02-24T03:38:10.215Z,90.42
2023-02-24T03:40:40.325Z,90.26
2023-02-24T03:43:15.358Z,90.52
2023-02-24T03:45:46.708Z,90.39
2023-02-24T03:48:17.390Z,90.60
2023-02-24T03:50:49.577Z,90.65
2023-02-24T03:53:57.466Z,90.59
2023-02-24T03:56:32.891Z,90.56
2023-02-24T03:59:13.654Z,90.56
2023-02-24T04:01:51.979Z,90.59
2023-02-24T04:04:28.938Z,90.88
2023-02-24T04:07:17.230Z,90.63
2023-02-24T04:09:53.861Z,90.66
2023-02-24T04:12:28.396Z,90.68
2023-02-24T04:15:08.662Z,90.68
2023-02-24T04:17:42.528Z,90.64
2023-02-24T04:20:16.411Z,90.62
2023-02-24T04:22:54.606Z,90.58
2023-02-24T04:25:28.589Z,90.63
2023-02-24T04:28:03.124Z,90.69
2023-02-24T04:30:36.398Z,90.65
2023-02-24T04:33:07.627Z,90.41
2023-02-24T04:35:37.910Z,90.41
2023-02-24T04:38:07.858Z,90.60
2023-02-24T04:40:40.908Z,90.36
2023-02-24T04:43:11.065Z,90.43
2023-02-24T04:45:42.178Z,90.39
2023-02-24T04:48:13.210Z,90.54
2023-02-24T04:50:44.880Z,90.57
2023-02-24T04:53:16.408Z,90.61
2023-02-24T04:55:50.831Z,90.81
2023-02-24T04:58:22.217Z,90.58
2023-02-24T05:00:53.179Z,90.61
2023-02-24T05:03:28.679Z,90.60
2023-02-24T05:06:00.210Z,90.59
2023-02-24T05:08:31.059Z,90.40
2023-02-24T05:11:04.003Z,90.44
2023-02-24T05:13:37.689Z,90.43
2023-02-24T05:16:09.752Z,90.27
2023-02-24T05:18:39.743Z,90.29
2023-02-24T05:21:23.853Z,90.09
2023-02-24T05:23:54.931Z,89.81
2023-02-24T05:26:27.982Z,89.99
2023-02-24T05:28:59.910Z,89.68
2023-02-24T05:31:30.964Z,89.67
2023-02-24T05:34:02.752Z,89.73
2023-02-24T05:36:34.484Z,89.52
2023-02-24T05:39:07.396Z,89.26
2023-02-24T05:41:42.642Z,89.25
2023-02-24T05:44:16.003Z,89.06
2023-02-24T05:46:48.578Z,88.85
2023-02-24T05:49:23.439Z,88.77
2023-02-24T05:51:57.142Z,88.99
2023-02-24T05:54:29.532Z,88.84
2023-02-24T05:57:02.860Z,88.75
2023-02-24T05:59:33.633Z,88.42
2023-02-24T06:02:07.300Z,88.24
2023-02-24T06:04:50.795Z,88.34
2023-02-24T06:07:22.976Z,87.88
2023-02-24T06:09:54.141Z,88.08
2023-02-24T06:12:28.225Z,87.65
2023-02-24T06:14:58.178Z,87.75
2023-02-24T06:17:27.826Z,87.72
2023-02-24T06:19:57.599Z,87.42
2023-02-24T06:22:28.711Z,87.58
2023-02-24T06:24:58.849Z,87.24
2023-02-24T06:27:31.012Z,87.31
2023-02-24T06:30:00.590Z,87.28
2023-02-24T06:32:30.228Z,87.00
2023-02-24T06:35:00.013Z,87.05
2023-02-24T06:37:30.027Z,86.75
2023-02-24T06:40:00.185Z,86.93
2023-02-24T06:42:32.425Z,86.74
2023-02-24T06:45:02.401Z,86.56
2023-02-24T06:47:32.666Z,86.55
2023-02-24T06:50:02.375Z,86.55
2023-02-24T06:52:31.946Z,86.39
2023-02-24T06:55:04.680Z,86.52
2023-02-24T06:57:36.866Z,86.55
2023-02-24T07:00:16.997Z,86.53
2023-02-24T07:02:46.578Z,86.42
2023-02-24T07:05:17.121Z,86.03
2023-02-24T07:07:46.809Z,86.17
2023-02-24T07:10:16.494Z,86.10
2023-02-24T07:12:48.639Z,85.80
2023-02-24T07:15:18.424Z,85.86
2023-02-24T07:17:48.843Z,85.87
2023-02-24T07:20:26.193Z,85.81
2023-02-24T07:22:56.087Z,85.81
2023-02-24T07:25:33.833Z,85.88
2023-02-24T07:28:07.488Z,85.87
2023-02-24T07:30:37.280Z,85.83
2023-02-24T07:33:07.276Z,85.79
2023-02-24T07:35:41.540Z,85.60
2023-02-24T07:38:17.121Z,85.39
2023-02-24T07:40:47.338Z,85.35
2023-02-24T07:43:19.515Z,85.32
2023-02-24T07:45:50.028Z,84.98
2023-02-24T07:48:21.233Z,84.71
2023-02-24T07:50:51.128Z,84.69
2023-02-24T07:53:20.730Z,84.40
2023-02-24T07:55:53.593Z,84.31
2023-02-24T07:58:28.456Z,84.09
2023-02-24T08:01:08.760Z,83.86
2023-02-24T08:03:41.574Z,83.46
2023-02-24T08:06:15.736Z,83.33
2023-02-24T08:09:09.698Z,83.45
2023-02-24T08:11:42.623Z,83.25
2023-02-24T08:14:16.413Z,82.94
2023-02-24T08:16:46.678Z,82.55
2023-02-24T08:19:20.978Z,82.77
2023-02-24T08:21:53.198Z,82.59
2023-02-24T08:24:25.504Z,82.54
2023-02-24T08:27:04.400Z,82.25
2023-02-24T08:29:40.407Z,82.21
2023-02-24T08:32:11.537Z,82.12
2023-02-24T08:34:44.317Z,81.92
2023-02-24T08:37:15.763Z,81.71
2023-02-24T08:39:47.657Z,81.64
2023-02-24T08:42:17.302Z,81.39
2023-02-24T08:44:53.804Z,81.27
2023-02-24T08:47:31.024Z,80.93
2023-02-24T08:50:07.129Z,81.02
2023-02-24T08:52:39.179Z,80.73
2023-02-24T08:55:10.711Z,80.22
2023-02-24T08:57:40.330Z,80.17
2023-02-24T09:00:28.153Z,79.74
2023-02-24T09:02:58.314Z,79.55
2023-02-24T09:05:28.883Z,79.32
2023-02-24T09:07:59.131Z,79.13
2023-02-24T09:10:29.021Z,78.71
2023-02-24T09:12:58.700Z,78.21
2023-02-24T09:15:41.395Z,77.96
2023-02-24T09:18:14.410Z,77.86
2023-02-24T09:21:16.240Z,77.55
2023-02-24T09:23:48.653Z,77.15
2023-02-24T09:26:20.295Z,76.85
2023-02-24T09:28:54.984Z,76.71
2023-02-24T09:31:40.824Z,76.22
2023-02-24T09:34:18.560Z,76.14
2023-02-24T09:37:01.508Z,75.69
2023-02-24T09:39:51.917Z,75.57
2023-02-24T09:42:36.171Z,75.07
2023-02-24T09:45:11.464Z,74.36
2023-02-24T09:47:57.202Z,73.57
2023-02-24T09:51:03.110Z,73.26
2023-02-24T09:53:41.314Z,72.47
2023-02-24T09:56:22.196Z,72.17
2023-02-24T09:58:55.051Z,71.66
2023-02-24T10:01:43.474Z,70.99
2023-02-24T10:04:36.246Z,71.13
2023-02-24T10:07:08.592Z,70.84
2023-02-24T10:09:40.474Z,70.57
2023-02-24T10:12:17.736Z,70.40
2023-02-24T10:14:53.017Z,70.48
2023-02-24T10:17:40.022Z,70.47
2023-02-24T10:20:31.113Z,70.11
2023-02-24T10:23:05.646Z,69.87
2023-02-24T10:25:53.728Z,69.98
2023-02-24T10:28:35.959Z,69.77
2023-02-24T10:31:25.257Z,69.92
2023-02-24T10:33:58.549Z,70.18
2023-02-24T10:36:35.631Z,69.76
2023-02-24T10:39:11.848Z,69.55
2023-02-24T10:41:57.454Z,69.38
2023-02-24T10:44:36.166Z,69.89
2023-02-24T10:47:13.997Z,69.85
2023-02-24T10:49:57.050Z,70.30
2023-02-24T10:53:11.107Z,69.91
2023-02-24T10:55:55.564Z,70.28
2023-02-24T10:58:38.020Z,70.55
2023-02-24T11:01:18.761Z,70.54
2023-02-24T11:04:22.670Z,70.37
2023-02-24T11:06:57.956Z,70.74
2023-02-24T11:09:44.049Z,70.84
2023-02-24T11:12:30.118Z,71.09
2023-02-24T11:15:13.735Z,71.28
2023-02-24T11:17:50.904Z,71.96
2023-02-24T11:20:33.681Z,72.10
2023-02-24T11:23:16.075Z,72.28
2023-02-24T11:25:51.027Z,72.51
2023-02-24T11:28:29.446Z,72.73
2023-02-24T11:31:07.146Z,72.86
2023-02-24T11:33:42.628Z,73.15
2023-02-24T11:36:17.264Z,73.14
2023-02-24T11:38:49.292Z,73.47
2023-02-24T11:41:27.468Z,73.68
2023-02-24T11:44:00.782Z,74.18
2023-02-24T11:46:39.459Z,74.41
2023-02-24T11:49:17.472Z,74.76
2023-02-24T11:51:47.599Z,74.90
2023-02-24T11:54:18.538Z,75.31
2023-02-24T11:56:54.958Z,75.55
2023-02-24T11:59:32.852Z,75.99
2023-02-24T12:02:08.186Z,76.25
2023-02-24T12:04:40.101Z,76.79
2023-02-24T12:07:13.021Z,77.17
2023-02-24T12:09:47.113Z,77.42
2023-02-24T12:12:22.823Z,77.85
2023-02-24T12:14:55.094Z,78.44
2023-02-24T12:17:28.881Z,78.91
2023-02-24T12:20:05.885Z,79.16
2023-02-24T12:22:46.095Z,79.37
2023-02-24T12:25:19.155Z,79.56
2023-02-24T12:28:02.068Z,79.99
2023-02-24T12:30:48.945Z,80.19
2023-02-24T12:33:28.098Z,80.63
2023-02-24T12:36:07.303Z,80.62
2023-02-24T12:38:45.956Z,80.85
2023-02-24T12:41:37.381Z,81.11
2023-02-24T12:44:22.472Z,80.98
2023-02-24T12:46:57.807Z,80.99
2023-02-24T12:49:38.251Z,81.24
2023-02-24T12:52:13.926Z,81.48
2023-02-24T12:54:46.910Z,81.48
2023-02-24T12:57:22.952Z,81.43
2023-02-24T12:59:58.052Z,81.55
2023-02-24T13:02:36.522Z,81.75
2023-02-24T13:05:10.761Z,81.60
2023-02-24T13:07:45.867Z,81.95
2023-02-24T13:10:23.949Z,81.72
2023-02-24T13:12:55.971Z,81.78
2023-02-24T13:15:31.434Z,81.92
2023-02-24T13:18:01.152Z,82.14
2023-02-24T13:20:34.844Z,82.30
2023-02-24T13:23:06.183Z,82.50
2023-02-24T13:25:37.345Z,82.40
2023-02-24T13:28:09.080Z,82.83
2023-02-24T13:30:44.133Z,82.92
2023-02-24T13:33:28.147Z,82.96
2023-02-24T13:36:20.589Z,83.16
2023-02-24T13:38:51.127Z,82.94
2023-02-24T13:41:38.077Z,82.95
2023-02-24T13:44:25.507Z,82.85
2023-02-24T13:47:23.224Z,83.04
2023-02-24T13:49:59.764Z,83.20
2023-02-24T13:52:41.041Z,83.34
2023-02-24T13:55:19.672Z,83.25
2023-02-24T13:58:20.191Z,83.25
2023-02-24T14:01:02.948Z,83.61
2023-02-24T14:03:35.979Z,83.74
2023-02-24T14:06:06.441Z,83.79
2023-02-24T14:08:43.433Z,83.86
2023-02-24T14:11:15.892Z,83.98
2023-02-24T14:13:48.971Z,84.03
2023-02-24T14:16:23.789Z,84.14
2023-02-24T14:19:01.750Z,84.37
2023-02-24T14:21:32.795Z,84.75
2023-02-24T14:24:05.284Z,84.99
2023-02-24T14:26:39.406Z,85.24
2023-02-24T14:29:09.484Z,85.31
2023-02-24T14:31:39.763Z,85.13
2023-02-24T14:34:20.584Z,85.22
2023-02-24T14:36:51.238Z,84.89
2023-02-24T14:39:23.069Z,85.30
2023-02-24T14:41:53.989Z,85.40
2023-02-24T14:44:26.002Z,85.37
2023-02-24T14:46:57.194Z,85.70
2023-02-24T14:49:31.908Z,85.79
2023-02-24T14:52:05.114Z,85.69
2023-02-24T14:54:45.758Z,85.98
2023-02-24T14:57:17.117Z,86.17
2023-02-24T14:59:49.152Z,86.34
2023-02-24T15:02:21.461Z,86.35
2023-02-24T15:04:56.722Z,86.12
2023-02-24T15:07:29.865Z,86.10
2023-02-24T15:09:59.626Z,86.40
2023-02-24T15:12:32.291Z,86.34
2023-02-24T15:15:03.816Z,86.26
2023-02-24T15:17:33.564Z,86.53
2023-02-24T15:20:06.936Z,86.43
2023-02-24T15:22:39.436Z,86.39
2023-02-24T15:25:21.326Z,86.47
2023-02-24T15:27:55.675Z,86.50
2023-02-24T15:30:34.250Z,86.59
2023-02-24T15:33:06.972Z,86.51
2023-02-24T15:35:42.433Z,86.63
2023-02-24T15:38:24.275Z,86.59
2023-02-24T15:40:54.819Z,86.86
2023-02-24T15:43:35.312Z,87.02
2023-02-24T15:46:16.412Z,87.00
2023-02-24T15:48:47.192Z,86.67
2023-02-24T15:51:24.621Z,86.61
2023-02-24T15:53:54.261Z,86.72
2023-02-24T15:56:24.390Z,86.91
2023-02-24T15:58:54.192Z,86.99
2023-02-24T16:01:26.184Z,86.94
2023-02-24T16:03:55.800Z,87.02
2023-02-24T16:06:28.999Z,87.10
2023-02-24T16:08:59.328Z,87.18
2023-02-24T16:11:30.985Z,87.19
2023-02-24T16:14:02.317Z,87.31
2023-02-24T16:16:33.375Z,87.33
2023-02-24T16:19:03.079Z,87.32
2023-02-24T16:21:35.250Z,87.40
2023-02-24T16:24:04.909Z,87.69
2023-02-24T16:26:38.288Z,87.45
2023-02-24T16:29:11.570Z,87.59
2023-02-24T16:31:42.131Z,87.90
2023-02-24T16:34:15.345Z,87.80
2023-02-24T16:36:48.305Z,88.01
2023-02-24T16:39:17.931Z,87.92
2023-02-24T16:41:47.500Z,88.15
2023-02-24T16:44:17.074Z,88.26
2023-02-24T16:46:47.114Z,88.05
2023-02-24T16:49:20.823Z,88.42
2023-02-24T16:51:53.010Z,88.25
2023-02-24T16:54:23.463Z,88.50
2023-02-24T16:56:52.998Z,88.45
2023-02-24T16:59:22.547Z,88.87
2023-02-24T17:01:52.410Z,89.18
2023-02-24T17:04:22.188Z,89.23
2023-02-24T17:06:54.594Z,89.59
2023-02-24T17:09:25.919Z,89.91
2023-02-24T17:11:55.490Z,90.20
2023-02-24T17:14:25.080Z,90.37
2023-02-24T17:16:54.747Z,90.35
2023-02-24T17:19:24.323Z,90.61
2023-02-24T17:21:56.470Z,90.91
2023-02-24T17:24:26.050Z,90.88
2023-02-24T17:26:58.755Z,91.23
2023-02-24T17:29:28.404Z,91.44
2023-02-24T17:31:58.086Z,91.27
2023-02-24T17:34:27.777Z,91.44
2023-02-24T17:36:59.986Z,91.60
2023-02-24T17:39:29.832Z,91.49
2023-02-24T17:41:59.415Z,91.72
2023-02-24T17:44:29.035Z,91.79
2023-02-24T17:46:58.591Z,91.99
2023-02-24T17:49:28.182Z,92.13
2023-02-24T17:52:00.338Z,92.26
2023-02-24T17:54:29.936Z,92.28
2023-02-24T17:56:59.494Z,92.20
2023-02-24T17:59:29.054Z,92.13
2023-02-24T18:01:59.983Z,92.18
2023-02-24T18:04:29.792Z,92.44
2023-02-24T18:07:01.931Z,92.48
2023-02-24T18:09:31.466Z,92.37
2023-02-24T18:12:01.012Z,92.27
2023-02-24T18:14:30.647Z,92.40
2023-02-24T18:17:00.428Z,92.28
2023-02-24T18:19:30.490Z,92.35
2023-02-24T18:22:02.672Z,92.45
2023-02-24T18:24:32.312Z,92.53
2023-02-24T18:27:02.867Z,92.19
2023-02-24T18:29:32.505Z,92.51
2023-02-24T18:32:03.274Z,92.44
2023-02-24T18:34:33.364Z,92.52
2023-02-24T18:37:05.513Z,92.39
2023-02-24T18:39:35.148Z,92.39
2023-02-24T18:42:04.709Z,92.30
2023-02-24T18:44:34.458Z,92.40
2023-02-24T18:47:09.332Z,92.16
2023-02-24T18:49:39.579Z,92.10
2023-02-24T18:52:13.134Z,91.96
2023-02-24T18:54:42.837Z,91.96
2023-02-24T18:57:13.277Z,91.87
2023-02-24T18:59:42.857Z,91.99
2023-02-24T19:02:13.273Z,91.63
2023-02-24T19:04:42.889Z,91.70
2023-02-24T19:07:15.178Z,91.44
2023-02-24T19:09:45.414Z,91.44
2023-02-24T19:12:15.105Z,91.37
2023-02-24T19:14:44.685Z,91.18
2023-02-24T19:17:14.309Z,91.00
2023-02-24T19:19:43.889Z,91.03
2023-02-24T19:22:16.164Z,90.92
2023-02-24T19:24:45.952Z,91.02
2023-02-24T19:27:15.511Z,90.76
2023-02-24T19:29:45.087Z,90.73
2023-02-24T19:32:14.845Z,91.02
2023-02-24T19:34:46.103Z,90.93
2023-02-24T19:37:18.248Z,91.14
2023-02-24T19:39:49.193Z,90.90
2023-02-24T19:42:18.998Z,90.90
2023-02-24T19:44:48.591Z,91.17
2023-02-24T19:47:18.378Z,91.05
2023-02-24T19:49:48.588Z,91.21
2023-02-24T19:52:20.764Z,91.29
2023-02-24T19:54:54.339Z,91.19
2023-02-24T19:57:24.355Z,91.28
2023-02-24T19:59:54.544Z,90.97
2023-02-24T20:02:24.146Z,91.17
2023-02-24T20:04:53.778Z,90.84
2023-02-24T20:07:26.060Z,90.70
2023-02-24T20:09:56.383Z,90.85
2023-02-24T20:12:25.956Z,90.82
2023-02-24T20:14:55.643Z,90.91
2023-02-24T20:17:25.211Z,90.79
2023-02-24T20:19:54.837Z,90.65
2023-02-24T20:22:27.068Z,90.65
2023-02-24T20:24:56.695Z,90.77
2023-02-24T20:27:26.424Z,90.81
2023-02-24T20:29:58.785Z,90.75
2023-02-24T20:32:28.658Z,90.67
2023-02-24T20:34:58.392Z,90.89
2023-02-24T20:37:30.613Z,90.61
2023-02-24T20:40:00.209Z,90.88
2023-02-24T20:42:30.542Z,90.86
2023-02-24T20:45:00.184Z,90.65
2023-02-24T20:47:29.775Z,90.49
2023-02-24T20:49:59.506Z,90.26
2023-02-24T20:52:33.801Z,90.51
2023-02-24T20:55:03.501Z,90.52
2023-02-24T20:57:33.093Z,90.26
2023-02-24T21:00:08.162Z,90.23
2023-02-24T21:02:40.357Z,90.29
2023-02-24T21:05:10.746Z,90.43
2023-02-24T21:07:42.938Z,90.46
2023-02-24T21:10:14.391Z,90.42
2023-02-24T21:12:44.148Z,90.23
2023-02-24T21:15:14.742Z,90.50
2023-02-24T21:17:44.368Z,90.55
2023-02-24T21:20:15.511Z,90.29
2023-02-24T21:22:47.654Z,90.36
2023-02-24T21:25:17.512Z,90.35
2023-02-24T21:27:48.426Z,90.41
2023-02-24T21:30:18.327Z,90.67
2023-02-24T21:32:48.580Z,90.84
2023-02-24T21:35:18.417Z,91.07
2023-02-24T21:37:50.576Z,91.13
2023-02-24T21:40:20.434Z,91.36
2023-02-24T21:42:50.401Z,91.78
2023-02-24T21:45:20.044Z,92.01
2023-02-24T21:47:49.890Z,92.14
2023-02-24T21:50:20.257Z,92.28
2023-02-24T21:52:52.672Z,92.55
2023-02-24T21:55:23.402Z,92.79
2023-02-24T21:57:53.004Z,92.90
2023-02-24T22:00:24.150Z,92.93
2023-02-24T22:02:57.884Z,93.23
2023-02-24T22:05:28.815Z,93.18
2023-02-24T22:08:01.913Z,93.10
2023-02-24T22:10:31.557Z,93.35
2023-02-24T22:13:01.659Z,93.28
2023-02-24T22:15:31.320Z,93.24
2023-02-24T22:18:00.906Z,93.19
2023-02-24T22:20:30.564Z,93.35
2023-02-24T22:23:02.711Z,93.35
2023-02-24T22:25:32.270Z,93.42
2023-02-24T22:28:01.858Z,93.45
2023-02-24T22:30:31.948Z,93.49
2023-02-24T22:33:01.605Z,93.19
2023-02-24T22:35:31.184Z,93.10
2023-02-24T22:38:03.372Z,92.91
2023-02-24T22:40:32.930Z,92.96
2023-02-24T22:43:02.541Z,92.95
2023-02-24T22:45:32.117Z,92.45
2023-02-24T22:48:01.760Z,92.46
2023-02-24T22:50:31.347Z,92.42
2023-02-24T22:53:03.544Z,92.16
2023-02-24T22:55:33.272Z,91.78
2023-02-24T22:58:02.829Z,91.86
2023-02-24T23:00:32.385Z,91.60
2023-02-24T23:03:01.976Z,91.38
2023-02-24T23:05:31.574Z,91.36
2023-02-24T23:08:04.776Z,91.17
2023-02-24T23:10:34.353Z,90.82
2023-02-24T23:13:03.967Z,90.73
2023-02-24T23:15:33.549Z,90.82
2023-02-24T23:18:03.158Z,90.39
2023-02-24T23:20:32.829Z,90.38
2023-02-24T23:23:04.998Z,90.32
2023-02-24T23:25:35.983Z,90.49
2023-02-24T23:28:05.612Z,90.17
2023-02-24T23:30:36.130Z,90.23
2023-02-24T23:33:05.731Z,89.95
2023-02-24T23:35:37.050Z,89.75
2023-02-24T23:38:09.333Z,89.88
2023-02-24T23:40:49.484Z,90.06
2023-02-24T23:43:19.950Z,89.86
2023-02-24T23:45:49.981Z,89.96
2023-02-24T23:48:19.627Z,89.88
2023-02-24T23:50:51.161Z,90.04
2023-02-24T23:53:23.679Z,89.75
2023-02-24T23:55:53.423Z,89.86
2023-02-24T23:58:24.447Z,89.75
